Terminal Aerodrome Forecast
Issued by NWS

Home | Current Version | Previous Version | Text Only | Print | Product List | Glossary On
Versions: 1 2 3 4 5 6 7 8 9 10 11 12 13 14 15 16 17
000
FTUS43 KAPX 062335
TAFAPN
TAF
KAPN 062335Z 0700/0724 21009G16KT P6SM BKN080
     FM070600 23007KT P6SM -SHSN SCT035 SCT120
     FM071500 21009KT 5SM -SN SCT025 OVC035
     FM072100 26014KT 3SM -SHSN OVC035=

USA.gov is the U.S. government's official web portal to all federal, state and local government web resources and services.